Terminal Aerodrome Forecast
Issued by NWS

Home | Current Version | Previous Version | Text Only | Print | Product List | Glossary On
Versions: 1 2 3 4 5 6 7 8 9 10 11 12 13 14 15 16 17 18 19
305
FTUS45 KRIW 161125
TAFCOD
TAF
KCOD 161125Z 1612/1712 VRB03KT 1/2SM FZFG VV001
     FM161300 VRB03KT P6SM BCFG SCT003
      TEMPO 1613/1614 1/2SM FZFG VV002
     FM161500 17007KT P6SM FEW012
     FM161800 06006KT P6SM SKC
     FM170400 25008G17KT P6SM SCT120
      AMD LTD TO CLD VIS AND WIND=

USA.gov is the U.S. government's official web portal to all federal, state and local government web resources and services.